Accueil
METAR-TAF:

METAR-TAF

Aéroports :

Base aérienne de l'OTAN de Geilenkirchen

Geilenkirchen, Allemagne

latitude: 50-57-39N, longitude: 006-2-33E, altitude: 90 m

METAR: absent

Heure: 23:09 (22:09 UTC)

Prévision

Le bulletin a été fait il y a 32 heures et 9 minutes, à 14:00 UTC
Prévision valable du 16 à 15 UTC au 17 à 06 UTC
Vent 10 kt de est avec des rafales jusqu'à 17 kt
Visibilité 10 km ou plus
pas de nuages en-dessous de 1500 mètres et pas de cumulonimbus.

TAF: ETNG 161400Z 1615/1706 10010G17KT CAVOK

Observations et prévisions météorologiques de plus de 4000 aéroports (messages METAR et TAF).

Les stations disponibles sont représentées par des disques jaunes et rouges sur la carte.

Passer la souris dessus pour voir le nom de la station.

Cliquer dessus pour voir les observations et prévisions météorologiques.

Pour changer de carte: cliquez sur les boutons verts avec une croix noire pour zoomer, sur le bouton vert avec un tiret pour effectuer un zoom arrière, ou sur les flèches vertes pour les cartes adjacentes.


METAR-TAF: